Time;durP1;ratioP1;P1;durP2;ratioP2;P2;SDS_P1;SDS_P2;PMS_P1;PMS_P2;Temp;Humidity;BMP_temperature;BMP_pressure;BME280_temperature;BME280_humidity;BME280_pressure;Samples;Min_cycle;Max_cycle;Signal;HPM_P1;HPM_P2
2023/03/12 00:02:22;;;;;;;;;;;24.50;82.10;;;;;;1867082;75;20479;-83
2023/03/12 00:04:52;;;;;;;;;;;24.50;81.80;;;;;;1894436;75;20219;-72
2023/03/12 00:07:22;;;;;;;;;;;24.50;82.00;;;;;;1868509;77;20203;-72
2023/03/12 00:09:52;;;;;;;;;;;24.50;82.00;;;;;;1838708;78;20182;-72
2023/03/12 00:12:21;;;;;;;;;;;24.50;81.70;;;;;;1859233;75;20158;-72
2023/03/12 00:14:51;;;;;;;;;;;24.50;81.80;;;;;;1893091;75;20184;-72
2023/03/12 00:17:23;;;;;;;;;;;24.50;81.80;;;;;;1871898;75;20484;-72
2023/03/12 00:19:53;;;;;;;;;;;24.50;81.50;;;;;;1903099;75;20552;-72
2023/03/12 00:22:24;;;;;;;;;;;24.60;81.10;;;;;;1875484;75;20310;-73
2023/03/12 00:24:54;;;;;;;;;;;24.60;80.80;;;;;;1877162;76;20348;-72
2023/03/12 00:27:25;;;;;;;;;;;24.60;80.60;;;;;;1894388;75;20174;-72
2023/03/12 00:29:55;;;;;;;;;;;24.60;80.50;;;;;;1893650;75;20161;-73
2023/03/12 00:32:25;;;;;;;;;;;24.60;80.50;;;;;;1874329;75;20215;-71
2023/03/12 00:34:55;;;;;;;;;;;24.60;80.10;;;;;;1872800;75;20212;-72
2023/03/12 00:37:25;;;;;;;;;;;24.60;79.70;;;;;;1882718;75;20565;-72
2023/03/12 00:39:56;;;;;;;;;;;24.70;79.70;;;;;;1880868;75;20295;-71
2023/03/12 00:42:26;;;;;;;;;;;24.70;79.40;;;;;;1869784;77;20235;-71
2023/03/12 00:44:55;;;;;;;;;;;24.70;79.20;;;;;;1873860;75;20176;-72
2023/03/12 00:47:25;;;;;;;;;;;24.80;79.20;;;;;;1877930;75;20374;-72
2023/03/12 00:49:55;;;;;;;;;;;24.80;79.00;;;;;;1850611;77;20348;-71
2023/03/12 00:52:25;;;;;;;;;;;24.80;78.60;;;;;;1844869;77;20219;-72
2023/03/12 00:54:57;;;;;;;;;;;24.90;78.30;;;;;;1844964;78;20227;-72
2023/03/12 00:57:27;;;;;;;;;;;24.90;77.70;;;;;;1869549;75;20180;-73
2023/03/12 00:59:57;;;;;;;;;;;25.00;77.60;;;;;;1876766;75;20209;-72
2023/03/12 01:02:27;;;;;;;;;;;25.00;77.20;;;;;;1880545;75;20188;-73
2023/03/12 01:04:56;;;;;;;;;;;25.00;77.00;;;;;;1888445;75;20491;-72
2023/03/12 01:07:26;;;;;;;;;;;25.00;76.90;;;;;;1872800;75;20199;-71
2023/03/12 01:09:56;;;;;;;;;;;25.10;75.60;;;;;;1857049;77;20296;-71
2023/03/12 01:12:26;;;;;;;;;;;25.00;75.70;;;;;;1872502;76;20284;-70
2023/03/12 01:14:56;;;;;;;;;;;25.00;75.80;;;;;;1826138;78;20189;-71
2023/03/12 01:17:26;;;;;;;;;;;25.00;75.70;;;;;;1825082;77;20196;-72
2023/03/12 01:19:57;;;;;;;;;;;25.00;75.80;;;;;;1781373;80;20258;-71
2023/03/12 01:22:27;;;;;;;;;;;25.10;75.70;;;;;;1820684;78;20193;-72
2023/03/12 01:24:57;;;;;;;;;;;25.10;75.40;;;;;;1807535;78;20643;-71
2023/03/12 01:27:27;;;;;;;;;;;25.20;75.90;;;;;;1838265;77;20225;-72
2023/03/12 01:29:57;;;;;;;;;;;25.10;75.30;;;;;;1847412;77;21046;-72
2023/03/12 01:32:27;;;;;;;;;;;25.20;74.90;;;;;;1802911;79;20196;-72
2023/03/12 01:34:58;;;;;;;;;;;25.20;74.40;;;;;;1836967;78;20216;-72
2023/03/12 01:37:28;;;;;;;;;;;25.20;74.10;;;;;;1840520;77;20324;-71
2023/03/12 01:39:58;;;;;;;;;;;25.30;74.10;;;;;;1845037;77;20163;-72
2023/03/12 01:42:28;;;;;;;;;;;25.30;74.30;;;;;;1836241;77;20670;-72
2023/03/12 01:44:59;;;;;;;;;;;25.30;74.40;;;;;;1836566;78;20218;-72
2023/03/12 01:47:32;;;;;;;;;;;25.30;73.90;;;;;;1836286;78;20171;-72
2023/03/12 01:50:03;;;;;;;;;;;25.40;73.00;;;;;;1838967;77;20208;-73
2023/03/12 01:52:34;;;;;;;;;;;25.40;73.10;;;;;;1832569;77;20277;-74
2023/03/12 01:55:05;;;;;;;;;;;25.50;73.30;;;;;;1843132;77;20342;-72
2023/03/12 01:57:36;;;;;;;;;;;25.50;72.10;;;;;;1852173;77;20172;-73
2023/03/12 02:00:07;;;;;;;;;;;25.50;74.20;;;;;;1820125;77;20211;-73
2023/03/12 02:02:37;;;;;;;;;;;25.50;72.80;;;;;;1818580;77;20326;-72
2023/03/12 02:05:08;;;;;;;;;;;25.50;72.20;;;;;;1814031;77;20507;-73
2023/03/12 02:07:38;;;;;;;;;;;25.60;72.40;;;;;;1813043;77;20203;-72
2023/03/12 02:10:09;;;;;;;;;;;25.60;73.00;;;;;;1813954;77;20190;-72
2023/03/12 02:12:38;;;;;;;;;;;25.70;72.40;;;;;;1810565;78;20161;-72
2023/03/12 02:15:09;;;;;;;;;;;25.70;72.30;;;;;;1809631;79;20201;-73
2023/03/12 02:17:39;;;;;;;;;;;25.80;72.10;;;;;;1808384;79;20299;-72
2023/03/12 02:20:22;;;;;;;;;;;25.80;71.70;;;;;;1810791;78;20262;-73
2023/03/12 02:22:57;;;;;;;;;;;25.90;71.70;;;;;;1765963;80;20187;-80
2023/03/12 02:25:44;;;;;;;;;;;25.90;72.30;;;;;;1834767;78;20434;-80
2023/03/12 02:28:14;;;;;;;;;;;25.90;71.90;;;;;;1834044;78;20178;-81
2023/03/12 02:30:48;;;;;;;;;;;25.90;72.70;;;;;;1832584;78;20187;-81
2023/03/12 02:33:18;;;;;;;;;;;25.90;71.80;;;;;;1835584;78;20166;-79
2023/03/12 02:35:55;;;;;;;;;;;25.90;72.00;;;;;;1838412;78;20560;-81
2023/03/12 02:38:42;;;;;;;;;;;26.00;72.10;;;;;;1821555;78;20180;-80
2023/03/12 02:41:12;;;;;;;;;;;26.00;71.40;;;;;;1766806;81;20580;-81
2023/03/12 02:43:44;;;;;;;;;;;26.10;71.40;;;;;;1794267;80;20229;-80
2023/03/12 02:46:14;;;;;;;;;;;26.20;71.40;;;;;;1774625;80;20147;-80
2023/03/12 02:48:44;;;;;;;;;;;26.20;70.80;;;;;;1779868;79;20159;-80
2023/03/12 02:51:14;;;;;;;;;;;26.30;70.60;;;;;;1780485;79;20140;-82
2023/03/12 02:53:45;;;;;;;;;;;26.40;69.70;;;;;;1866899;76;20121;-80
2023/03/12 02:56:15;;;;;;;;;;;26.50;70.30;;;;;;1839315;76;20576;-81
2023/03/12 02:58:47;;;;;;;;;;;26.50;69.40;;;;;;1836472;78;20751;-81
2023/03/12 03:01:18;;;;;;;;;;;26.60;69.80;;;;;;1834956;78;20136;-80
2023/03/12 03:03:48;;;;;;;;;;;26.60;69.50;;;;;;1844485;78;20131;-81
2023/03/12 03:06:18;;;;;;;;;;;26.70;69.50;;;;;;1840973;78;20135;-81
2023/03/12 03:08:48;;;;;;;;;;;26.80;69.60;;;;;;1836062;78;20405;-81
2023/03/12 03:11:23;;;;;;;;;;;26.80;69.30;;;;;;1846045;76;20233;-81
2023/03/12 03:13:52;;;;;;;;;;;26.90;69.00;;;;;;1836694;78;20166;-80
2023/03/12 03:16:23;;;;;;;;;;;27.00;69.20;;;;;;1834101;78;20166;-81
2023/03/12 03:18:53;;;;;;;;;;;27.00;69.60;;;;;;1839832;74;20560;-83
2023/03/12 03:21:23;;;;;;;;;;;27.20;69.70;;;;;;1889304;76;20119;-81
2023/03/12 03:23:52;;;;;;;;;;;27.20;69.20;;;;;;1906645;75;20148;-81
2023/03/12 03:26:24;;;;;;;;;;;27.40;69.40;;;;;;1892453;74;20129;-81
2023/03/12 03:28:54;;;;;;;;;;;27.50;68.80;;;;;;1896918;75;20241;-80
2023/03/12 03:31:25;;;;;;;;;;;27.60;69.00;;;;;;1891574;75;20132;-81
2023/03/12 03:34:01;;;;;;;;;;;27.60;68.80;;;;;;1898108;74;20215;-82
2023/03/12 03:36:30;;;;;;;;;;;27.70;68.90;;;;;;1895356;74;20400;-81
2023/03/12 03:39:00;;;;;;;;;;;27.80;68.20;;;;;;1911448;75;20170;-80
2023/03/12 03:41:33;;;;;;;;;;;27.90;68.00;;;;;;1890854;75;20183;-81
2023/03/12 03:44:08;;;;;;;;;;;27.90;67.60;;;;;;1889106;75;20182;-81
2023/03/12 03:46:39;;;;;;;;;;;28.00;68.20;;;;;;1889603;74;20204;-81
2023/03/12 03:49:14;;;;;;;;;;;28.10;68.00;;;;;;1896448;75;20191;-82
2023/03/12 03:51:43;;;;;;;;;;;28.20;67.40;;;;;;1892556;74;20183;-81
2023/03/12 03:54:13;;;;;;;;;;;28.30;67.20;;;;;;1896451;75;20864;-82
2023/03/12 03:56:43;;;;;;;;;;;28.40;65.70;;;;;;1899807;75;20213;-82
2023/03/12 03:59:13;;;;;;;;;;;28.50;66.10;;;;;;1890171;74;20487;-82
2023/03/12 04:01:43;;;;;;;;;;;28.50;64.80;;;;;;1892367;74;20588;-81
2023/03/12 04:04:12;;;;;;;;;;;28.40;66.40;;;;;;1849569;76;20135;-82
2023/03/12 04:06:42;;;;;;;;;;;28.50;65.80;;;;;;1884798;76;20539;-82
2023/03/12 04:09:12;;;;;;;;;;;28.50;65.30;;;;;;1879582;76;20215;-82
2023/03/12 04:11:42;;;;;;;;;;;28.50;64.50;;;;;;1820674;78;20190;-82
2023/03/12 04:14:11;;;;;;;;;;;28.50;63.40;;;;;;1885943;74;20199;-83
2023/03/12 04:16:41;;;;;;;;;;;28.60;63.90;;;;;;1886006;76;20195;-84
2023/03/12 04:19:12;;;;;;;;;;;28.70;62.50;;;;;;1853742;77;20166;-82
2023/03/12 04:21:42;;;;;;;;;;;28.80;63.10;;;;;;1877257;75;20132;-82
2023/03/12 04:24:13;;;;;;;;;;;28.90;63.20;;;;;;1881325;75;20429;-82
2023/03/12 04:26:43;;;;;;;;;;;29.00;63.10;;;;;;1873318;76;20153;-82
2023/03/12 04:29:13;;;;;;;;;;;29.00;61.50;;;;;;1874053;76;20180;-82
2023/03/12 04:31:43;;;;;;;;;;;29.10;61.90;;;;;;1875070;76;20174;-83
2023/03/12 04:34:14;;;;;;;;;;;29.20;61.40;;;;;;1875635;76;20299;-82
2023/03/12 04:36:46;;;;;;;;;;;29.20;60.70;;;;;;1868547;76;20412;-81
2023/03/12 04:39:23;;;;;;;;;;;29.20;60.30;;;;;;1869174;76;20201;-82
2023/03/12 04:41:53;;;;;;;;;;;29.30;61.10;;;;;;1872959;76;20121;-83
2023/03/12 04:44:24;;;;;;;;;;;29.20;61.60;;;;;;1845443;78;20127;-82
2023/03/12 04:46:54;;;;;;;;;;;29.30;60.40;;;;;;1873981;75;20164;-82
2023/03/12 04:49:24;;;;;;;;;;;29.40;60.60;;;;;;1875683;76;20140;-84
2023/03/12 04:51:54;;;;;;;;;;;29.40;60.30;;;;;;1876911;76;20214;-85
2023/03/12 04:54:24;;;;;;;;;;;29.40;61.30;;;;;;1873825;75;20451;-83
2023/03/12 04:56:54;;;;;;;;;;;29.40;60.10;;;;;;1874274;75;20211;-83
2023/03/12 04:59:24;;;;;;;;;;;29.50;61.50;;;;;;1882765;75;20243;-83
2023/03/12 05:01:54;;;;;;;;;;;29.60;61.90;;;;;;1898048;75;20506;-82
2023/03/12 05:04:23;;;;;;;;;;;29.70;60.00;;;;;;1842321;76;20604;-82
2023/03/12 05:06:53;;;;;;;;;;;29.80;59.40;;;;;;1828573;78;20197;-82
2023/03/12 05:09:23;;;;;;;;;;;29.90;60.40;;;;;;1846935;78;20182;-82
2023/03/12 05:11:53;;;;;;;;;;;30.00;59.40;;;;;;1878998;76;20230;-81
2023/03/12 05:14:24;;;;;;;;;;;30.00;59.50;;;;;;1890987;75;20208;-80
2023/03/12 05:16:54;;;;;;;;;;;30.10;59.70;;;;;;1865648;75;20187;-82
2023/03/12 05:19:24;;;;;;;;;;;30.10;59.70;;;;;;1873478;76;20561;-82
2023/03/12 05:21:54;;;;;;;;;;;30.20;59.30;;;;;;1872820;76;20196;-82
2023/03/12 05:24:23;;;;;;;;;;;30.20;58.60;;;;;;1904950;75;20200;-84
2023/03/12 05:26:53;;;;;;;;;;;30.20;59.70;;;;;;1897201;75;20210;-83
2023/03/12 05:29:23;;;;;;;;;;;30.20;59.20;;;;;;1875358;76;20184;-83
2023/03/12 05:31:53;;;;;;;;;;;30.20;58.90;;;;;;1873299;76;20166;-82
2023/03/12 05:34:23;;;;;;;;;;;30.20;59.20;;;;;;1874147;76;20220;-82
2023/03/12 05:36:52;;;;;;;;;;;30.20;58.50;;;;;;1873424;76;20434;-82
2023/03/12 05:39:22;;;;;;;;;;;30.30;57.80;;;;;;1889164;75;20211;-83
2023/03/12 05:41:57;;;;;;;;;;;30.30;58.70;;;;;;1871202;76;20475;-83
2023/03/12 05:44:24;;;;;;;;;;;30.40;58.80;;;;;;1870097;76;20160;-83
2023/03/12 05:46:57;;;;;;;;;;;30.40;58.40;;;;;;1863919;75;20177;-83
2023/03/12 05:49:27;;;;;;;;;;;30.40;58.50;;;;;;1877477;75;20218;-82
2023/03/12 05:51:57;;;;;;;;;;;30.50;59.20;;;;;;1870684;77;20117;-81
2023/03/12 05:54:27;;;;;;;;;;;30.50;58.90;;;;;;1871824;75;20532;-82
2023/03/12 05:57:01;;;;;;;;;;;30.60;58.60;;;;;;1879074;75;20093;-83
2023/03/12 05:59:30;;;;;;;;;;;30.60;58.60;;;;;;1880186;75;20140;-83
2023/03/12 06:02:04;;;;;;;;;;;30.60;58.60;;;;;;1881461;75;20152;-83
2023/03/12 06:04:42;;;;;;;;;;;30.60;58.10;;;;;;1878127;76;20121;-84
2023/03/12 06:07:29;;;;;;;;;;;30.70;57.60;;;;;;1872453;75;20168;-81
2023/03/12 06:09:59;;;;;;;;;;;30.80;59.10;;;;;;1877230;75;20538;-82
2023/03/12 06:12:29;;;;;;;;;;;30.80;58.90;;;;;;1876436;76;20505;-82
2023/03/12 06:14:59;;;;;;;;;;;30.80;57.80;;;;;;1870434;76;20198;-82
2023/03/12 06:17:30;;;;;;;;;;;30.80;58.10;;;;;;1876803;76;20180;-82
2023/03/12 06:20:00;;;;;;;;;;;30.80;58.80;;;;;;1872169;76;20197;-82
2023/03/12 06:22:30;;;;;;;;;;;30.80;57.60;;;;;;1868279;75;20459;-81
2023/03/12 06:25:00;;;;;;;;;;;30.90;57.60;;;;;;1867839;75;20194;-83
2023/03/12 06:27:38;;;;;;;;;;;30.90;57.30;;;;;;1866238;75;20174;-82
2023/03/12 06:30:08;;;;;;;;;;;31.00;57.90;;;;;;1882328;76;20528;-82
2023/03/12 06:32:38;;;;;;;;;;;31.00;58.40;;;;;;1828931;78;20166;-83
2023/03/12 06:35:08;;;;;;;;;;;31.10;58.00;;;;;;1811791;78;20214;-81
2023/03/12 06:37:38;;;;;;;;;;;31.10;57.30;;;;;;1821031;78;20224;-82
2023/03/12 06:40:09;;;;;;;;;;;31.20;57.80;;;;;;1813507;78;20417;-83
2023/03/12 06:42:39;;;;;;;;;;;31.20;57.70;;;;;;1806515;78;20230;-82
2023/03/12 06:45:10;;;;;;;;;;;31.20;56.80;;;;;;1799887;79;20425;-82
2023/03/12 06:47:40;;;;;;;;;;;31.20;57.50;;;;;;1796503;78;20608;-82
2023/03/12 06:50:10;;;;;;;;;;;31.20;58.00;;;;;;1815306;77;20560;-82
2023/03/12 06:52:40;;;;;;;;;;;31.30;58.10;;;;;;1822786;78;20234;-81
2023/03/12 06:55:10;;;;;;;;;;;31.30;58.10;;;;;;1824968;78;20202;-82
2023/03/12 06:57:40;;;;;;;;;;;31.30;57.80;;;;;;1800966;78;20169;-83
2023/03/12 07:00:11;;;;;;;;;;;31.30;56.80;;;;;;1813966;79;20133;-83
2023/03/12 07:02:42;;;;;;;;;;;31.30;57.20;;;;;;1819860;79;20131;-82
2023/03/12 07:05:12;;;;;;;;;;;31.20;57.20;;;;;;1809809;79;20287;-82
2023/03/12 07:07:41;;;;;;;;;;;31.20;57.20;;;;;;1863432;75;20208;-83
2023/03/12 07:10:12;;;;;;;;;;;31.20;57.30;;;;;;1861140;76;20253;-82
2023/03/12 07:12:42;;;;;;;;;;;31.20;57.70;;;;;;1863690;76;20317;-79
2023/03/12 07:15:13;;;;;;;;;;;31.20;57.90;;;;;;1868867;76;20143;-80
2023/03/12 07:17:55;;;;;;;;;;;31.20;58.00;;;;;;1856933;75;20157;-82
2023/03/12 07:20:22;;;;;;;;;;;31.20;57.30;;;;;;1867215;75;20175;-81
2023/03/12 07:22:52;;;;;;;;;;;31.20;58.00;;;;;;1874664;76;20503;-82
2023/03/12 07:25:26;;;;;;;;;;;31.20;57.80;;;;;;1876017;75;20224;-82
2023/03/12 07:27:55;;;;;;;;;;;31.30;58.00;;;;;;1894712;75;20197;-81
2023/03/12 07:30:32;;;;;;;;;;;31.30;56.80;;;;;;1902300;75;20187;-83
2023/03/12 07:32:58;;;;;;;;;;;31.30;57.60;;;;;;1918622;74;20114;-82
2023/03/12 07:35:29;;;;;;;;;;;31.30;57.40;;;;;;1875603;76;20266;-82
2023/03/12 07:37:59;;;;;;;;;;;31.30;57.60;;;;;;1873870;76;20393;-81
2023/03/12 07:40:31;;;;;;;;;;;31.30;56.90;;;;;;1878459;76;20125;-81
2023/03/12 07:43:01;;;;;;;;;;;31.30;57.10;;;;;;1870319;76;20524;-83
2023/03/12 07:45:31;;;;;;;;;;;31.30;58.70;;;;;;1876534;75;20161;-82
2023/03/12 07:48:01;;;;;;;;;;;31.30;57.20;;;;;;1877018;76;20204;-84
2023/03/12 07:50:31;;;;;;;;;;;31.30;57.60;;;;;;1880155;75;20306;-83
2023/03/12 07:53:01;;;;;;;;;;;31.30;57.20;;;;;;1840899;78;20371;-83
2023/03/12 07:55:32;;;;;;;;;;;31.30;57.50;;;;;;1802913;78;20220;-83
2023/03/12 07:58:17;;;;;;;;;;;31.30;58.10;;;;;;1830313;78;20222;-85
2023/03/12 08:01:05;;;;;;;;;;;31.30;57.50;;;;;;1877856;75;20186;-84
2023/03/12 08:03:37;;;;;;;;;;;31.20;56.90;;;;;;1905218;75;20388;-83
2023/03/12 08:06:08;;;;;;;;;;;31.20;57.30;;;;;;1905379;75;20127;-83
2023/03/12 08:08:41;;;;;;;;;;;31.30;56.80;;;;;;1883040;75;20129;-82
2023/03/12 08:11:13;;;;;;;;;;;31.30;56.90;;;;;;1877259;76;20472;-81
2023/03/12 08:13:43;;;;;;;;;;;31.30;56.90;;;;;;1873442;75;20475;-83
2023/03/12 08:16:17;;;;;;;;;;;31.30;57.40;;;;;;1876084;75;20152;-82
2023/03/12 08:18:48;;;;;;;;;;;31.30;57.10;;;;;;1880486;75;20117;-82
2023/03/12 08:21:17;;;;;;;;;;;31.30;57.40;;;;;;1878470;76;20157;-83
2023/03/12 08:23:47;;;;;;;;;;;31.20;56.70;;;;;;1892163;76;20118;-82
2023/03/12 08:26:25;;;;;;;;;;;31.20;56.90;;;;;;1887192;75;20129;-83
2023/03/12 08:28:55;;;;;;;;;;;31.30;57.00;;;;;;1878378;76;20196;-81
2023/03/12 08:31:28;;;;;;;;;;;31.20;56.30;;;;;;1873121;76;20595;-81
2023/03/12 08:33:58;;;;;;;;;;;31.20;56.90;;;;;;1844282;76;20260;-82
2023/03/12 08:36:28;;;;;;;;;;;31.30;56.00;;;;;;1877233;76;20173;-81
2023/03/12 08:38:57;;;;;;;;;;;31.30;56.30;;;;;;1882247;76;20192;-81
2023/03/12 08:41:29;;;;;;;;;;;31.20;56.20;;;;;;1880140;76;20165;-81
2023/03/12 08:43:58;;;;;;;;;;;31.20;56.20;;;;;;1798420;78;20251;-80
2023/03/12 08:46:28;;;;;;;;;;;31.20;56.10;;;;;;1784060;80;20206;-81
2023/03/12 08:48:58;;;;;;;;;;;31.20;56.30;;;;;;1788586;80;20193;-81
2023/03/12 08:51:29;;;;;;;;;;;31.20;56.30;;;;;;1871294;76;20159;-81
2023/03/12 08:53:59;;;;;;;;;;;31.20;57.30;;;;;;1879575;76;20200;-82
2023/03/12 08:56:29;;;;;;;;;;;31.20;57.90;;;;;;1880013;76;20184;-82
2023/03/12 08:59:00;;;;;;;;;;;31.10;58.00;;;;;;1881172;76;20203;-81
2023/03/12 09:01:30;;;;;;;;;;;31.10;58.10;;;;;;1880164;76;20215;-81
2023/03/12 09:04:01;;;;;;;;;;;31.00;58.40;;;;;;1904961;75;20307;-80
2023/03/12 09:06:32;;;;;;;;;;;31.10;58.50;;;;;;1891613;75;20459;-80
2023/03/12 09:09:07;;;;;;;;;;;31.00;58.50;;;;;;1885263;75;20432;-81
2023/03/12 09:11:38;;;;;;;;;;;31.00;58.50;;;;;;1880520;76;20245;-81
2023/03/12 09:14:08;;;;;;;;;;;31.00;59.00;;;;;;1883586;75;20207;-82
2023/03/12 09:16:40;;;;;;;;;;;31.00;58.90;;;;;;1870255;75;20196;-81
2023/03/12 09:19:16;;;;;;;;;;;31.00;59.00;;;;;;1921475;75;20413;-81
2023/03/12 09:21:46;;;;;;;;;;;31.00;58.80;;;;;;1892247;75;20463;-80
2023/03/12 09:24:17;;;;;;;;;;;30.90;58.80;;;;;;1878095;74;20205;-81
2023/03/12 09:26:46;;;;;;;;;;;30.90;59.20;;;;;;1887281;76;20176;-82
2023/03/12 09:29:16;;;;;;;;;;;31.00;59.20;;;;;;1889621;75;20170;-82
2023/03/12 09:31:46;;;;;;;;;;;30.90;59.50;;;;;;1901259;75;20208;-82
2023/03/12 09:34:17;;;;;;;;;;;30.90;59.90;;;;;;1871155;77;20240;-80
2023/03/12 09:36:46;;;;;;;;;;;30.80;59.10;;;;;;1870051;77;20191;-81
2023/03/12 09:39:17;;;;;;;;;;;30.80;59.60;;;;;;1864763;77;20249;-81
2023/03/12 09:41:47;;;;;;;;;;;30.80;59.50;;;;;;1847872;78;20161;-82
2023/03/12 09:44:24;;;;;;;;;;;30.80;59.60;;;;;;1849349;78;20131;-81
2023/03/12 09:46:56;;;;;;;;;;;30.70;59.40;;;;;;1859962;75;20203;-81
2023/03/12 09:49:39;;;;;;;;;;;30.70;59.60;;;;;;1870744;77;20388;-82
2023/03/12 09:52:20;;;;;;;;;;;30.60;59.90;;;;;;1871853;77;20129;-84
2023/03/12 09:54:51;;;;;;;;;;;30.60;60.20;;;;;;1871502;75;20220;-82
2023/03/12 09:57:22;;;;;;;;;;;30.60;60.40;;;;;;1832014;78;20284;-82
2023/03/12 09:59:53;;;;;;;;;;;30.60;60.70;;;;;;1811966;78;20197;-82
2023/03/12 10:02:24;;;;;;;;;;;30.60;60.70;;;;;;1831411;78;20206;-83
2023/03/12 10:04:58;;;;;;;;;;;30.50;60.70;;;;;;1833285;77;20167;-83
2023/03/12 10:07:38;;;;;;;;;;;30.60;60.80;;;;;;1815251;78;20176;-83
2023/03/12 10:10:09;;;;;;;;;;;30.50;61.90;;;;;;1833407;76;20224;-84
2023/03/12 10:12:43;;;;;;;;;;;30.50;60.90;;;;;;1875504;75;20232;-82
2023/03/12 10:15:15;;;;;;;;;;;30.50;61.00;;;;;;1872225;75;20211;-83
2023/03/12 10:17:49;;;;;;;;;;;30.40;61.00;;;;;;1877938;75;20506;-85
2023/03/12 10:20:23;;;;;;;;;;;30.40;61.10;;;;;;1868737;77;20158;-81
2023/03/12 10:23:10;;;;;;;;;;;30.40;61.30;;;;;;1877241;75;20446;-82
2023/03/12 10:25:44;;;;;;;;;;;30.40;61.40;;;;;;1877837;75;20156;-81
2023/03/12 10:28:18;;;;;;;;;;;30.40;61.60;;;;;;1896539;75;20177;-82
2023/03/12 10:30:53;;;;;;;;;;;30.40;61.80;;;;;;1880349;75;20213;-83
2023/03/12 10:33:23;;;;;;;;;;;30.40;61.90;;;;;;1873462;76;20345;-83
2023/03/12 10:35:54;;;;;;;;;;;30.30;62.00;;;;;;1873703;75;20264;-81
2023/03/12 10:38:29;;;;;;;;;;;30.40;62.40;;;;;;1871729;76;20266;-83
2023/03/12 10:40:59;;;;;;;;;;;30.40;62.40;;;;;;1867730;75;20176;-82
2023/03/12 10:43:29;;;;;;;;;;;30.40;62.40;;;;;;1872503;76;20355;-82
2023/03/12 10:46:12;;;;;;;;;;;30.30;62.30;;;;;;1869376;75;20184;-82
2023/03/12 10:48:42;;;;;;;;;;;30.40;62.50;;;;;;1869663;75;20182;-82
2023/03/12 10:51:13;;;;;;;;;;;30.30;62.70;;;;;;1871590;76;20191;-81
2023/03/12 10:53:51;;;;;;;;;;;30.30;64.00;;;;;;1871245;76;20177;-81
2023/03/12 10:56:21;;;;;;;;;;;30.20;63.20;;;;;;1875162;75;20249;-82
2023/03/12 10:58:52;;;;;;;;;;;30.20;63.80;;;;;;1833830;76;20272;-81
2023/03/12 11:01:25;;;;;;;;;;;30.10;64.60;;;;;;1825993;78;20591;-83
2023/03/12 11:04:13;;;;;;;;;;;30.10;64.50;;;;;;1807768;79;20258;-82
2023/03/12 11:06:43;;;;;;;;;;;30.00;64.70;;;;;;1807814;79;20316;-81
2023/03/12 11:09:14;;;;;;;;;;;30.00;65.20;;;;;;1838909;77;20174;-81
2023/03/12 11:11:46;;;;;;;;;;;29.90;65.40;;;;;;1785537;80;20277;-81
2023/03/12 11:14:26;;;;;;;;;;;29.90;66.00;;;;;;1810020;79;20180;-81
2023/03/12 11:16:56;;;;;;;;;;;29.80;65.30;;;;;;1808810;79;20219;-83
2023/03/12 11:19:27;;;;;;;;;;;29.80;65.40;;;;;;1810184;79;20622;-83
2023/03/12 11:21:59;;;;;;;;;;;29.70;66.00;;;;;;1811980;79;20125;-81
2023/03/12 11:24:29;;;;;;;;;;;29.70;65.90;;;;;;1807966;79;20181;-81
2023/03/12 11:27:16;;;;;;;;;;;29.60;66.10;;;;;;1810484;79;20121;-83
2023/03/12 11:29:48;;;;;;;;;;;29.60;65.80;;;;;;1783693;80;20224;-83
2023/03/12 11:32:22;;;;;;;;;;;29.60;67.20;;;;;;1791001;80;20622;-82
2023/03/12 11:34:54;;;;;;;;;;;29.50;67.10;;;;;;1794401;80;20203;-83
2023/03/12 11:37:44;;;;;;;;;;;29.50;67.20;;;;;;1791431;80;20135;-82
2023/03/12 11:40:17;;;;;;;;;;;29.50;66.80;;;;;;1768670;80;20212;-83
2023/03/12 11:42:51;;;;;;;;;;;29.40;67.90;;;;;;1720835;82;20533;-83
2023/03/12 11:45:31;;;;;;;;;;;29.40;66.70;;;;;;1776874;78;20205;-82
2023/03/12 11:48:12;;;;;;;;;;;29.40;66.80;;;;;;1775757;78;20581;-82
2023/03/12 11:50:43;;;;;;;;;;;29.40;67.50;;;;;;1788664;78;20173;-82
2023/03/12 11:53:26;;;;;;;;;;;29.30;67.70;;;;;;1768546;81;20585;-83
2023/03/12 11:55:57;;;;;;;;;;;29.30;67.90;;;;;;1781261;78;20311;-83
2023/03/12 11:58:28;;;;;;;;;;;29.30;68.10;;;;;;1793964;78;20576;-83
2023/03/12 12:01:05;;;;;;;;;;;29.30;67.80;;;;;;1792317;80;20296;-82
2023/03/12 12:03:51;;;;;;;;;;;29.30;67.30;;;;;;1793628;79;20536;-82
2023/03/12 12:06:22;;;;;;;;;;;29.30;68.70;;;;;;1795920;79;20469;-83
2023/03/12 12:09:05;;;;;;;;;;;29.20;68.50;;;;;;1796060;79;20259;-80
2023/03/12 12:11:53;;;;;;;;;;;29.20;68.90;;;;;;1802609;79;20434;-81
2023/03/12 12:14:36;;;;;;;;;;;29.20;68.70;;;;;;1798978;78;20189;-82
2023/03/12 12:17:10;;;;;;;;;;;29.10;68.10;;;;;;1783551;78;20193;-82
2023/03/12 12:19:44;;;;;;;;;;;29.10;68.50;;;;;;1790649;80;20220;-82
2023/03/12 12:22:22;;;;;;;;;;;29.10;68.40;;;;;;1743540;80;20283;-83
2023/03/12 12:25:10;;;;;;;;;;;29.00;69.00;;;;;;1869703;75;20186;-83
2023/03/12 12:27:53;;;;;;;;;;;29.00;68.20;;;;;;1875479;75;20275;-84
2023/03/12 12:30:25;;;;;;;;;;;29.00;68.40;;;;;;1896946;75;20205;-82
2023/03/12 12:33:14;;;;;;;;;;;29.00;68.90;;;;;;1874577;75;20230;-83
2023/03/12 12:35:44;;;;;;;;;;;29.00;68.70;;;;;;1889677;75;20186;-83
2023/03/12 12:38:40;;;;;;;;;;;29.00;68.60;;;;;;1857232;75;20301;-84
2023/03/12 12:41:13;;;;;;;;;;;28.90;68.70;;;;;;1888027;75;20296;-84
2023/03/12 12:43:50;;;;;;;;;;;28.90;68.60;;;;;;1892802;75;20312;-82
2023/03/12 12:46:29;;;;;;;;;;;28.90;68.50;;;;;;1876150;75;20299;-83
2023/03/12 12:49:03;;;;;;;;;;;28.90;68.80;;;;;;1898940;75;20222;-85
2023/03/12 12:51:35;;;;;;;;;;;28.90;68.90;;;;;;1860467;75;20197;-85
2023/03/12 12:54:06;;;;;;;;;;;28.90;68.80;;;;;;1865307;75;20641;-85
2023/03/12 12:56:50;;;;;;;;;;;28.90;68.90;;;;;;1868003;76;20287;-84
2023/03/12 12:59:24;;;;;;;;;;;28.90;69.20;;;;;;1864954;75;20657;-84
2023/03/12 13:02:02;;;;;;;;;;;28.90;69.30;;;;;;1882923;75;20160;-84
2023/03/12 13:04:29;;;;;;;;;;;28.80;69.00;;;;;;1894107;75;20176;-83
2023/03/12 13:07:06;;;;;;;;;;;28.80;68.60;;;;;;1875563;75;20129;-81
2023/03/12 13:09:45;;;;;;;;;;;28.80;69.10;;;;;;1867312;75;20176;-80
2023/03/12 13:12:33;;;;;;;;;;;28.80;69.20;;;;;;1839009;78;20235;-81
2023/03/12 13:15:04;;;;;;;;;;;28.80;69.30;;;;;;1811737;77;20294;-82
2023/03/12 13:17:54;;;;;;;;;;;28.80;69.50;;;;;;1825137;78;20211;-82
2023/03/12 13:20:42;;;;;;;;;;;28.80;69.70;;;;;;1836916;77;20228;-81
2023/03/12 13:23:19;;;;;;;;;;;28.70;69.50;;;;;;1827235;78;20185;-81
2023/03/12 13:25:59;;;;;;;;;;;28.70;69.40;;;;;;1801908;77;20213;-82
2023/03/12 13:28:31;;;;;;;;;;;28.70;69.70;;;;;;1815210;77;20294;-82
2023/03/12 13:31:16;;;;;;;;;;;28.70;69.70;;;;;;1812273;78;20531;-82
2023/03/12 13:33:50;;;;;;;;;;;28.70;69.60;;;;;;1803880;78;20234;-82
2023/03/12 13:36:22;;;;;;;;;;;28.70;69.70;;;;;;1813664;78;20401;-83
2023/03/12 13:39:02;;;;;;;;;;;28.70;69.60;;;;;;1813209;77;20521;-81
2023/03/12 13:41:41;;;;;;;;;;;28.70;70.00;;;;;;1808798;78;20184;-82
2023/03/12 13:44:24;;;;;;;;;;;28.70;70.20;;;;;;1813842;78;20466;-82
2023/03/12 13:46:55;;;;;;;;;;;28.60;70.20;;;;;;1811630;78;20284;-82
2023/03/12 13:49:26;;;;;;;;;;;28.60;70.60;;;;;;1806867;78;20220;-82
2023/03/12 13:51:57;;;;;;;;;;;28.60;70.80;;;;;;1854083;76;20399;-80
2023/03/12 13:54:31;;;;;;;;;;;28.60;72.20;;;;;;1849273;77;20173;-82
2023/03/12 13:57:05;;;;;;;;;;;28.60;73.30;;;;;;1858912;77;20468;-82
2023/03/12 13:59:37;;;;;;;;;;;28.50;73.00;;;;;;1861085;77;20231;-83
2023/03/12 14:02:08;;;;;;;;;;;28.50;73.80;;;;;;1869618;76;20286;-84
2023/03/12 14:04:39;;;;;;;;;;;28.40;73.40;;;;;;1848894;77;20168;-82
2023/03/12 14:07:17;;;;;;;;;;;28.40;74.40;;;;;;1859491;76;20651;-81
2023/03/12 14:10:07;;;;;;;;;;;28.40;75.50;;;;;;1861288;77;20204;-81
2023/03/12 14:12:53;;;;;;;;;;;28.30;76.90;;;;;;1844621;77;20235;-81
2023/03/12 14:15:24;;;;;;;;;;;28.30;76.50;;;;;;1860546;77;20130;-80
2023/03/12 14:17:55;;;;;;;;;;;28.20;77.40;;;;;;1858652;77;20208;-83
2023/03/12 14:20:24;;;;;;;;;;;28.20;75.80;;;;;;1855765;75;20200;-82
2023/03/12 14:22:55;;;;;;;;;;;28.20;76.10;;;;;;1848217;77;20161;-82
2023/03/12 14:25:38;;;;;;;;;;;28.20;75.50;;;;;;1859271;75;20176;-84
2023/03/12 14:28:18;;;;;;;;;;;28.20;75.30;;;;;;1821478;78;20143;-83
2023/03/12 14:30:49;;;;;;;;;;;28.10;74.10;;;;;;1819152;79;20255;-82
2023/03/12 14:33:20;;;;;;;;;;;28.10;74.10;;;;;;1868891;75;20246;-83
2023/03/12 14:35:51;;;;;;;;;;;28.10;73.50;;;;;;1870936;77;20172;-82
2023/03/12 14:38:28;;;;;;;;;;;28.10;72.90;;;;;;1859756;75;20190;-83
2023/03/12 14:40:59;;;;;;;;;;;28.00;72.30;;;;;;1873124;75;20642;-81
2023/03/12 14:43:30;;;;;;;;;;;28.00;71.90;;;;;;1887717;75;20185;-82
2023/03/12 14:46:00;;;;;;;;;;;28.00;71.40;;;;;;1895081;75;20181;-82
2023/03/12 14:48:31;;;;;;;;;;;28.00;71.30;;;;;;1870176;77;20173;-82